Time;durP1;ratioP1;P1;durP2;ratioP2;P2;SDS_P1;SDS_P2;PMS_P1;PMS_P2;Temp;Humidity;BMP_temperature;BMP_pressure;BME280_temperature;BME280_humidity;BME280_pressure;Samples;Min_cycle;Max_cycle;Signal;HPM_P1;HPM_P2
2021/05/22 00:00:56;;;;;;;25.97;19.50;;;14.70;70.90;;;;;;4949352;28;95512;-45
2021/05/22 00:03:26;;;;;;;24.45;17.33;;;14.70;71.10;;;;;;4952620;28;95581;-44
2021/05/22 00:05:57;;;;;;;23.00;16.95;;;14.70;71.20;;;;;;4949855;28;95863;-45
2021/05/22 00:08:27;;;;;;;24.85;18.13;;;14.70;71.40;;;;;;4955150;28;97723;-46
2021/05/22 00:10:58;;;;;;;23.40;16.70;;;14.70;71.50;;;;;;4948471;28;95909;-46
2021/05/22 00:13:30;;;;;;;22.95;16.55;;;14.70;71.60;;;;;;4952376;28;95734;-45
2021/05/22 00:16:01;;;;;;;;;;;14.70;71.60;;;;;;4947329;28;96144;-44
2021/05/22 00:18:32;;;;;;;19.10;13.23;;;14.70;71.90;;;;;;4956348;28;96133;-44
2021/05/22 00:21:05;;;;;;;19.95;15.05;;;14.70;71.70;;;;;;4949864;28;95904;-45
2021/05/22 00:23:37;;;;;;;17.60;13.13;;;14.70;71.70;;;;;;4954284;28;95932;-45
2021/05/22 00:26:07;;;;;;;19.27;14.00;;;14.70;72.40;;;;;;4949721;28;96326;-47
2021/05/22 00:28:39;;;;;;;15.85;12.90;;;14.70;71.90;;;;;;4952079;28;95908;-45
2021/05/22 00:31:09;;;;;;;18.10;13.57;;;14.70;71.90;;;;;;4944862;28;96073;-45
2021/05/22 00:33:39;;;;;;;14.30;11.18;;;14.70;72.00;;;;;;4955122;28;95959;-45
2021/05/22 00:36:10;;;;;;;16.88;11.05;;;14.70;72.00;;;;;;4949830;28;96546;-46
2021/05/22 00:38:41;;;;;;;;;;;14.70;72.10;;;;;;4951633;28;95852;-47
2021/05/22 00:41:14;;;;;;;14.77;10.88;;;14.70;72.20;;;;;;4953023;28;95623;-45
2021/05/22 00:43:46;;;;;;;15.40;11.82;;;14.70;72.20;;;;;;4939594;28;95341;-41
2021/05/22 00:46:20;;;;;;;14.85;10.00;;;14.70;72.40;;;;;;4895949;28;99524;-51
2021/05/22 00:48:51;;;;;;;;;;;14.70;72.40;;;;;;4943937;28;96534;-48
2021/05/22 00:51:23;;;;;;;13.50;9.55;;;14.70;72.60;;;;;;4942040;28;95722;-49
2021/05/22 00:53:55;;;;;;;13.80;9.93;;;14.70;72.70;;;;;;4938116;28;96368;-47
2021/05/22 00:56:27;;;;;;;13.02;9.32;;;14.80;72.80;;;;;;4940696;28;96233;-49
2021/05/22 00:58:57;;;;;;;10.80;7.50;;;14.80;72.70;;;;;;4939510;28;97063;-47
2021/05/22 01:01:27;;;;;;;11.27;9.27;;;14.80;72.80;;;;;;4932986;28;96482;-49
2021/05/22 01:03:57;;;;;;;11.90;8.88;;;14.90;72.80;;;;;;4934623;28;101409;-48
2021/05/22 01:06:33;;;;;;;10.48;8.25;;;14.90;72.80;;;;;;4937352;28;96593;-49
2021/05/22 01:09:10;;;;;;;11.15;7.95;;;14.90;72.80;;;;;;4931823;28;97581;-49
2021/05/22 01:11:54;;;;;;;9.30;7.35;;;15.00;72.80;;;;;;4938208;28;95913;-49
2021/05/22 01:14:42;;;;;;;9.50;7.47;;;15.00;72.80;;;;;;4932948;28;95775;-49
2021/05/22 01:17:15;;;;;;;10.45;7.72;;;15.10;73.00;;;;;;4930079;28;96572;-49
2021/05/22 01:20:07;;;;;;;8.63;6.38;;;15.20;73.10;;;;;;4932855;28;95883;-48
2021/05/22 01:22:44;;;;;;;10.13;7.47;;;15.20;73.00;;;;;;4935218;28;95869;-50
2021/05/22 01:25:31;;;;;;;8.00;6.05;;;15.30;73.00;;;;;;4937320;28;96008;-52
2021/05/22 01:28:04;;;;;;;8.32;6.53;;;15.40;73.20;;;;;;4933804;28;98731;-49
2021/05/22 01:30:36;;;;;;;9.98;7.07;;;15.50;73.50;;;;;;4932693;28;96165;-50
2021/05/22 01:33:07;;;;;;;;;;;15.60;73.90;;;;;;4936448;28;95692;-48
2021/05/22 01:35:39;;;;;;;8.40;5.30;;;15.80;74.10;;;;;;4936082;28;95647;-52
2021/05/22 01:38:10;;;;;;;8.05;6.25;;;15.90;74.10;;;;;;4934783;28;98169;-50
2021/05/22 01:40:41;;;;;;;7.30;5.38;;;16.10;74.20;;;;;;4932045;28;95770;-50
2021/05/22 01:43:13;;;;;;;7.18;5.10;;;16.20;74.10;;;;;;4934059;28;97041;-50
2021/05/22 01:45:45;;;;;;;7.20;5.55;;;16.30;74.00;;;;;;4926554;28;95818;-50
2021/05/22 01:48:22;;;;;;;7.55;5.32;;;16.40;73.90;;;;;;4925705;28;96744;-50
2021/05/22 01:51:06;;;;;;;8.77;5.65;;;16.60;73.80;;;;;;4922684;28;96534;-51
2021/05/22 01:53:56;;;;;;;6.82;5.03;;;16.80;73.60;;;;;;4924453;28;95923;-50
2021/05/22 01:56:28;;;;;;;6.57;5.00;;;17.00;73.30;;;;;;4927375;28;96718;-54
2021/05/22 01:59:00;;;;;;;7.05;5.93;;;17.10;73.00;;;;;;4927410;28;97560;-52
2021/05/22 02:01:32;;;;;;;6.85;4.75;;;17.30;72.80;;;;;;4917138;28;97393;-52
2021/05/22 02:04:08;;;;;;;6.07;4.82;;;17.40;73.00;;;;;;4939762;28;95955;-51
2021/05/22 02:06:48;;;;;;;6.25;4.70;;;17.60;72.00;;;;;;4938182;28;95291;-52
2021/05/22 02:09:22;;;;;;;6.75;5.20;;;17.80;71.70;;;;;;4940201;28;97139;-51
2021/05/22 02:11:55;;;;;;;8.82;4.88;;;17.90;72.00;;;;;;4936591;28;96568;-49
2021/05/22 02:14:34;;;;;;;4.82;4.30;;;18.00;70.90;;;;;;4939913;28;95934;-56
2021/05/22 02:17:08;;;;;;;10.35;5.45;;;18.20;70.70;;;;;;4931457;28;96876;-48
2021/05/22 02:19:43;;;;;;;13.73;7.85;;;18.30;68.20;;;;;;4939535;28;96519;-40
2021/05/22 02:22:21;;;;;;;9.43;6.00;;;18.10;64.60;;;;;;4936741;28;97772;-42
2021/05/22 02:24:56;;;;;;;10.13;5.68;;;18.10;64.10;;;;;;4943227;28;95741;-46
2021/05/22 02:27:27;;;;;;;10.77;5.40;;;18.10;64.00;;;;;;4940448;28;95720;-40
2021/05/22 02:29:58;;;;;;;14.13;6.60;;;18.10;62.80;;;;;;4940577;28;96542;-41
2021/05/22 02:32:29;;;;;;;19.05;8.50;;;18.10;63.90;;;;;;4931754;28;96000;-41
2021/05/22 02:35:05;;;;;;;27.35;10.40;;;18.20;63.10;;;;;;4937224;28;95705;-41
2021/05/22 02:37:38;;;;;;;20.35;8.93;;;18.20;59.30;;;;;;4935938;28;101495;-40
2021/05/22 02:40:14;;;;;;;19.75;9.75;;;18.20;61.10;;;;;;4938685;28;96247;-40
2021/05/22 02:42:51;;;;;;;22.17;10.10;;;18.30;61.30;;;;;;4936566;28;95782;-42
2021/05/22 02:45:27;;;;;;;17.58;9.10;;;18.40;61.40;;;;;;4926300;28;96231;-43
2021/05/22 02:48:02;;;;;;;13.80;7.10;;;18.50;61.00;;;;;;4917767;28;96460;-41
2021/05/22 02:50:35;;;;;;;12.52;7.47;;;18.50;59.90;;;;;;4921211;28;96159;-42
2021/05/22 02:53:12;;;;;;;10.70;5.95;;;18.50;60.90;;;;;;4917068;28;95983;-39
2021/05/22 02:55:44;;;;;;;7.45;4.07;;;18.60;60.40;;;;;;4920834;28;95782;-41
2021/05/22 02:58:20;;;;;;;10.13;5.20;;;18.70;60.40;;;;;;4934812;28;96017;-42
2021/05/22 03:00:52;;;;;;;11.70;5.75;;;18.70;62.50;;;;;;4913835;28;97783;-41
2021/05/22 03:03:22;;;;;;;;;;;18.90;62.40;;;;;;4916955;28;95891;-40
2021/05/22 03:05:51;;;;;;;16.02;3.92;;;18.90;61.60;;;;;;4923660;28;95902;-40
2021/05/22 03:08:21;;;;;;;8.98;4.95;;;18.90;59.80;;;;;;4920401;28;95302;-41
2021/05/22 03:10:54;;;;;;;7.07;4.17;;;18.90;62.10;;;;;;4920075;28;96839;-41
2021/05/22 03:13:25;;;;;;;8.25;4.97;;;19.00;61.50;;;;;;4916966;28;96093;-41
2021/05/22 03:15:57;;;;;;;9.00;4.43;;;19.00;61.80;;;;;;4917118;28;95945;-41
2021/05/22 03:18:28;;;;;;;9.00;4.15;;;19.10;60.60;;;;;;4918698;28;97006;-41
2021/05/22 03:20:58;;;;;;;;;;;19.10;59.50;;;;;;4930800;28;96557;-41
2021/05/22 03:23:30;;;;;;;7.15;4.03;;;19.10;61.20;;;;;;4919547;28;95969;-40
2021/05/22 03:26:01;;;;;;;5.32;3.35;;;19.20;60.10;;;;;;4920690;28;95366;-41
2021/05/22 03:28:33;;;;;;;7.13;3.83;;;19.20;60.20;;;;;;4919802;28;103472;-46
2021/05/22 03:31:03;;;;;;;9.38;3.75;;;19.30;61.40;;;;;;4923009;28;98274;-46
2021/05/22 03:33:34;;;;;;;9.43;3.80;;;19.30;62.20;;;;;;4935742;28;95465;-47
2021/05/22 03:36:06;;;;;;;6.18;3.70;;;19.30;62.40;;;;;;4937393;28;95373;-44
2021/05/22 03:38:37;;;;;;;;;;;19.30;62.60;;;;;;4935290;28;96604;-44
2021/05/22 03:41:08;;;;;;;7.88;4.88;;;19.30;63.00;;;;;;4938117;28;96942;-45
2021/05/22 03:43:39;;;;;;;7.07;4.43;;;19.30;63.00;;;;;;4932250;28;98431;-48
2021/05/22 03:46:09;;;;;;;8.13;4.70;;;19.20;63.20;;;;;;4932853;28;98516;-45
2021/05/22 03:48:40;;;;;;;5.53;3.50;;;19.20;63.50;;;;;;4931866;28;96275;-49
2021/05/22 03:51:13;;;;;;;8.85;4.22;;;19.20;63.60;;;;;;4936355;28;96404;-47
2021/05/22 03:53:45;;;;;;;7.15;3.58;;;19.20;63.80;;;;;;4934952;28;96629;-47
2021/05/22 03:56:15;;;;;;;8.50;4.20;;;19.20;64.00;;;;;;4937143;28;95301;-47
2021/05/22 03:58:47;;;;;;;5.90;3.75;;;19.10;64.00;;;;;;4936172;28;95904;-47
2021/05/22 04:01:20;;;;;;;6.93;3.47;;;19.10;64.10;;;;;;4931716;28;96192;-45
2021/05/22 04:03:50;;;;;;;5.80;3.72;;;19.20;64.40;;;;;;4933476;28;97145;-44
2021/05/22 04:06:20;;;;;;;6.85;3.70;;;19.20;64.40;;;;;;4929947;28;96887;-45
2021/05/22 04:08:50;;;;;;;8.18;3.50;;;19.20;64.50;;;;;;4934762;28;95758;-45
2021/05/22 04:11:20;;;;;;;3.63;3.20;;;19.20;64.70;;;;;;4932120;28;96369;-46
2021/05/22 04:13:51;;;;;;;4.35;3.15;;;19.10;64.70;;;;;;4933015;28;96979;-45
2021/05/22 04:16:22;;;;;;;6.95;3.65;;;19.20;64.90;;;;;;4928910;28;95403;-46
2021/05/22 04:18:57;;;;;;;5.07;3.17;;;19.20;65.00;;;;;;4923660;28;96040;-47
2021/05/22 04:21:32;;;;;;;6.55;3.17;;;19.20;65.10;;;;;;4934317;28;96062;-49
2021/05/22 04:24:04;;;;;;;4.78;3.08;;;19.20;65.30;;;;;;4936988;28;95998;-48
2021/05/22 04:26:35;;;;;;;6.93;3.67;;;19.30;65.30;;;;;;4934386;28;95430;-49
2021/05/22 04:29:07;;;;;;;6.07;3.28;;;19.30;65.40;;;;;;4938593;28;95319;-48
2021/05/22 04:31:37;;;;;;;6.40;3.75;;;19.30;65.30;;;;;;4931464;28;99280;-48
2021/05/22 04:34:10;;;;;;;4.57;3.17;;;19.30;65.40;;;;;;4937728;28;96495;-52
2021/05/22 04:36:42;;;;;;;4.82;3.28;;;19.40;65.50;;;;;;4935551;28;95747;-49
2021/05/22 04:39:13;;;;;;;6.32;3.42;;;19.40;65.50;;;;;;4936294;28;95450;-48
2021/05/22 04:41:44;;;;;;;6.50;3.50;;;19.40;65.60;;;;;;4935639;28;97343;-46
2021/05/22 04:44:16;;;;;;;3.88;2.88;;;19.40;65.70;;;;;;4938613;28;95479;-45
2021/05/22 04:46:48;;;;;;;5.35;3.50;;;19.50;65.80;;;;;;4931651;28;96055;-46
2021/05/22 04:49:20;;;;;;;5.68;3.45;;;19.50;65.90;;;;;;4937931;28;95802;-47
2021/05/22 04:51:49;;;;;;;4.40;3.20;;;19.50;65.90;;;;;;4937797;28;97281;-48
2021/05/22 04:54:19;;;;;;;4.00;2.92;;;19.50;65.90;;;;;;4937580;28;96031;-48
2021/05/22 04:56:50;;;;;;;3.72;3.03;;;19.50;65.90;;;;;;4937054;28;98539;-48
2021/05/22 04:59:21;;;;;;;;;;;19.50;66.00;;;;;;4939801;28;95974;-46
2021/05/22 05:01:51;;;;;;;7.35;3.80;;;19.50;66.00;;;;;;4932409;28;97175;-46
2021/05/22 05:04:21;;;;;;;3.78;2.47;;;19.60;66.00;;;;;;4937723;28;95597;-45
2021/05/22 05:06:51;;;;;;;3.95;2.90;;;19.60;65.90;;;;;;4935141;28;96002;-46
2021/05/22 05:09:24;;;;;;;3.33;2.45;;;19.60;66.10;;;;;;4938693;28;95998;-47
2021/05/22 05:11:54;;;;;;;3.60;2.60;;;19.60;66.10;;;;;;4932851;28;104530;-46
2021/05/22 05:14:26;;;;;;;3.97;2.80;;;19.50;66.10;;;;;;4937636;28;95933;-46
2021/05/22 05:16:57;;;;;;;;;;;19.60;66.20;;;;;;4932956;28;95896;-46
2021/05/22 05:19:30;;;;;;;4.88;2.80;;;19.60;66.30;;;;;;4940052;28;95954;-47
2021/05/22 05:22:01;;;;;;;3.45;2.70;;;19.60;66.30;;;;;;4936236;28;96397;-47
2021/05/22 05:24:36;;;;;;;3.45;2.70;;;19.60;66.20;;;;;;4937143;28;95480;-46
2021/05/22 05:27:08;;;;;;;2.97;2.40;;;19.70;66.30;;;;;;4936808;28;96254;-46
2021/05/22 05:29:41;;;;;;;3.30;2.90;;;19.60;66.30;;;;;;4933820;28;95761;-45
2021/05/22 05:32:12;;;;;;;7.53;2.63;;;19.70;66.40;;;;;;4928372;28;96050;-46
2021/05/22 05:34:43;;;;;;;5.25;2.58;;;19.60;66.40;;;;;;4915822;28;96445;-48
2021/05/22 05:37:15;;;;;;;4.25;2.72;;;19.60;66.40;;;;;;4917047;28;95843;-46
2021/05/22 05:39:46;;;;;;;3.87;2.20;;;19.60;66.20;;;;;;4915465;28;96083;-46
2021/05/22 05:42:17;;;;;;;3.60;2.20;;;19.60;66.30;;;;;;4918071;28;97280;-46
2021/05/22 05:44:48;;;;;;;3.17;2.22;;;19.60;66.20;;;;;;4914841;28;97239;-47
2021/05/22 05:47:19;;;;;;;2.95;2.65;;;19.60;66.30;;;;;;4946582;28;95890;-46
2021/05/22 05:49:51;;;;;;;3.35;2.00;;;19.60;66.40;;;;;;4935031;28;95958;-47
2021/05/22 05:52:22;;;;;;;;;;;19.60;66.20;;;;;;4938213;28;97084;-46
2021/05/22 05:54:55;;;;;;;5.05;2.30;;;19.60;66.30;;;;;;4936680;28;95816;-48
2021/05/22 05:57:25;;;;;;;2.92;2.03;;;19.60;66.40;;;;;;4954631;28;96238;-47
2021/05/22 05:59:57;;;;;;;4.07;2.63;;;19.60;66.60;;;;;;4933996;28;96271;-45
2021/05/22 06:02:27;;;;;;;2.85;2.25;;;19.70;67.10;;;;;;4931581;28;96819;-47
2021/05/22 06:04:58;;;;;;;2.72;2.20;;;19.70;67.10;;;;;;4934779;28;97321;-47
2021/05/22 06:07:29;;;;;;;2.80;2.30;;;19.60;67.00;;;;;;4936721;28;96050;-47
2021/05/22 06:10:01;;;;;;;3.28;1.83;;;19.60;67.10;;;;;;4934995;28;95909;-46
2021/05/22 06:12:31;;;;;;;3.17;2.35;;;19.70;67.10;;;;;;4937986;28;96267;-47
2021/05/22 06:17:46;;;;;;;2.47;1.98;;;19.60;67.20;;;;;;4938940;28;97001;-47
2021/05/22 06:20:18;;;;;;;3.92;2.40;;;19.60;67.20;;;;;;4934871;28;95821;-53
2021/05/22 06:22:49;;;;;;;7.88;2.42;;;19.60;67.40;;;;;;4935813;28;98942;-47
2021/05/22 06:25:21;;;;;;;3.97;2.40;;;19.60;67.40;;;;;;4935464;28;95882;-47
2021/05/22 06:27:54;;;;;;;3.53;2.38;;;19.60;67.30;;;;;;4936525;28;96666;-46
2021/05/22 06:30:24;;;;;;;3.17;1.90;;;19.60;67.30;;;;;;4932617;28;96354;-48
2021/05/22 06:32:54;;;;;;;2.55;2.08;;;19.50;67.40;;;;;;4937558;28;102306;-47
2021/05/22 06:35:24;;;;;;;3.58;2.25;;;19.50;67.40;;;;;;4946432;28;97614;-47
2021/05/22 06:37:55;;;;;;;2.67;2.00;;;19.50;67.60;;;;;;4948905;28;95609;-47
2021/05/22 06:40:27;;;;;;;3.63;2.20;;;19.40;68.20;;;;;;4944913;28;95510;-47
2021/05/22 06:42:59;;;;;;;4.47;1.88;;;19.30;67.80;;;;;;4944125;28;96637;-47
2021/05/22 06:48:22;;;;;;;;;;;19.20;68.10;;;;;;4936639;28;95457;-48
2021/05/22 06:50:54;;;;;;;3.57;2.10;;;19.10;68.20;;;;;;4947075;28;95780;-48
2021/05/22 06:53:24;;;;;;;2.63;1.85;;;19.10;68.50;;;;;;4949943;28;96965;-48
2021/05/22 06:55:54;;;;;;;4.20;1.88;;;19.00;68.70;;;;;;4946213;28;95667;-48
2021/05/22 06:58:24;;;;;;;2.88;2.00;;;19.00;68.70;;;;;;4950689;28;95672;-49
2021/05/22 07:00:55;;;;;;;3.38;2.13;;;19.00;68.70;;;;;;4942343;28;95829;-48
2021/05/22 07:03:25;;;;;;;2.20;1.95;;;18.90;68.80;;;;;;4944667;28;97443;-47
2021/05/22 07:05:58;;;;;;;;;;;18.90;69.00;;;;;;4951254;28;95818;-47
2021/05/22 07:08:30;;;;;;;2.25;1.75;;;18.80;69.10;;;;;;4949560;28;95888;-52
2021/05/22 07:11:02;;;;;;;4.53;2.22;;;18.80;69.20;;;;;;4950876;28;95680;-48
2021/05/22 07:13:33;;;;;;;3.00;2.00;;;18.80;69.30;;;;;;4945067;28;103410;-48
2021/05/22 07:16:05;;;;;;;3.90;1.95;;;18.70;69.40;;;;;;4938321;28;96078;-49
2021/05/22 07:18:36;;;;;;;3.20;1.88;;;18.70;69.30;;;;;;4925415;28;96370;-48
2021/05/22 07:21:12;;;;;;;4.50;1.90;;;18.60;69.30;;;;;;4927013;28;95377;-45
2021/05/22 07:23:43;;;;;;;2.50;1.80;;;18.60;69.50;;;;;;4924370;28;97062;-48
2021/05/22 07:26:15;;;;;;;3.15;2.25;;;18.60;69.90;;;;;;4943393;28;97718;-48
2021/05/22 07:28:49;;;;;;;2.45;1.88;;;18.50;70.10;;;;;;4921895;28;96153;-47
2021/05/22 07:31:19;;;;;;;2.35;1.63;;;18.50;70.60;;;;;;4926926;28;95873;-47
2021/05/22 07:33:51;;;;;;;3.15;1.90;;;18.50;70.70;;;;;;4903091;28;96704;-47
2021/05/22 07:36:22;;;;;;;3.22;2.63;;;18.40;71.10;;;;;;4923107;28;97668;-48
2021/05/22 07:38:54;;;;;;;2.45;2.25;;;18.40;71.20;;;;;;4924425;28;99123;-47
2021/05/22 07:41:25;;;;;;;3.03;2.15;;;18.50;71.00;;;;;;4926153;28;95320;-46
2021/05/22 07:43:56;;;;;;;;;;;18.50;71.40;;;;;;4923506;28;96398;-49
2021/05/22 07:46:27;;;;;;;2.83;2.20;;;18.60;71.70;;;;;;4941209;28;95965;-48
2021/05/22 07:48:59;;;;;;;3.58;2.20;;;18.60;71.60;;;;;;4941083;28;98747;-48
2021/05/22 07:51:30;;;;;;;4.97;2.35;;;18.60;71.40;;;;;;4948057;28;96072;-51
2021/05/22 07:54:01;;;;;;;3.83;2.38;;;18.60;71.20;;;;;;4947606;28;96575;-48
2021/05/22 07:56:33;;;;;;;;;;;18.60;71.10;;;;;;4951173;28;95773;-49
2021/05/22 07:59:03;;;;;;;3.38;2.60;;;18.60;71.10;;;;;;4954020;28;96837;-51
2021/05/22 08:01:37;;;;;;;4.07;3.67;;;18.60;71.20;;;;;;4948143;28;98068;-49
2021/05/22 08:04:08;;;;;;;3.10;2.17;;;18.60;71.10;;;;;;4944762;28;96328;-52
2021/05/22 08:06:40;;;;;;;3.92;2.40;;;18.60;71.70;;;;;;4948064;28;96506;-50
2021/05/22 08:09:11;;;;;;;7.18;2.90;;;18.60;71.10;;;;;;4939218;28;95768;-49
2021/05/22 08:11:42;;;;;;;3.43;2.60;;;18.60;70.90;;;;;;4947729;28;95883;-55
2021/05/22 08:14:14;;;;;;;3.78;2.42;;;18.60;70.60;;;;;;4945486;28;96228;-50
2021/05/22 08:16:46;;;;;;;3.17;2.05;;;18.70;70.50;;;;;;4959712;28;95965;-50
2021/05/22 08:19:19;;;;;;;3.78;2.53;;;18.80;70.40;;;;;;4956163;28;95720;-51
2021/05/22 08:21:51;;;;;;;3.40;2.72;;;18.80;70.40;;;;;;4960583;28;97171;-53
2021/05/22 08:24:22;;;;;;;3.63;2.78;;;18.80;70.40;;;;;;4963283;28;96328;-54
2021/05/22 08:26:54;;;;;;;4.47;2.88;;;18.80;70.30;;;;;;4957739;28;95787;-50
2021/05/22 08:29:46;;;;;;;3.78;2.72;;;18.80;70.20;;;;;;4940813;28;96355;-50
2021/05/22 08:32:18;;;;;;;3.88;3.03;;;18.90;70.10;;;;;;4953751;28;97691;-48
2021/05/22 08:34:50;;;;;;;5.18;3.58;;;18.90;70.20;;;;;;4940113;28;98292;-49
2021/05/22 08:37:23;;;;;;;4.93;3.17;;;18.90;70.20;;;;;;4949425;28;95750;-49
2021/05/22 08:39:54;;;;;;;5.18;3.58;;;18.90;70.20;;;;;;4940133;28;95873;-49
2021/05/22 08:42:29;;;;;;;7.60;3.80;;;18.90;70.40;;;;;;4944934;28;95416;-49
2021/05/22 08:45:23;;;;;;;4.38;3.47;;;18.90;70.80;;;;;;4945618;28;96077;-50
2021/05/22 08:47:57;;;;;;;6.10;4.03;;;18.90;71.20;;;;;;4925862;28;102330;-52
2021/05/22 08:50:28;;;;;;;4.80;4.07;;;18.90;71.20;;;;;;4924627;28;95314;-50
2021/05/22 08:52:59;;;;;;;;;;;18.80;71.40;;;;;;4930405;28;95825;-50
2021/05/22 08:55:30;;;;;;;5.82;4.15;;;18.80;71.60;;;;;;4927568;28;95814;-48
2021/05/22 08:58:01;;;;;;;7.50;5.10;;;18.80;71.90;;;;;;4928502;28;96013;-47
2021/05/22 09:00:41;;;;;;;8.27;5.00;;;18.80;72.00;;;;;;4922821;28;95563;-49
2021/05/22 09:03:12;;;;;;;11.25;6.18;;;18.70;72.00;;;;;;4923833;28;95759;-55
2021/05/22 09:05:45;;;;;;;9.30;6.57;;;18.70;72.00;;;;;;4924002;28;97169;-51
2021/05/22 09:08:18;;;;;;;10.70;7.50;;;18.70;72.00;;;;;;4928052;28;98090;-51
2021/05/22 09:10:54;;;;;;;11.32;8.13;;;18.60;71.90;;;;;;4912299;28;95756;-50
2021/05/22 09:13:28;;;;;;;9.52;6.65;;;18.60;71.70;;;;;;4943224;28;95350;-50
2021/05/22 09:16:11;;;;;;;12.07;8.00;;;18.60;71.50;;;;;;4922101;28;96267;-49
2021/05/22 09:18:46;;;;;;;11.23;7.82;;;18.60;71.40;;;;;;4920700;28;95849;-50
2021/05/22 09:21:20;;;;;;;12.57;8.40;;;18.60;71.30;;;;;;4925877;28;95318;-52
2021/05/22 09:23:58;;;;;;;14.93;9.98;;;18.60;71.40;;;;;;4927757;28;96144;-49
2021/05/22 09:26:34;;;;;;;14.80;9.43;;;18.60;71.40;;;;;;4926235;28;96100;-52
2021/05/22 09:29:24;;;;;;;14.05;9.15;;;18.50;71.40;;;;;;4922534;28;96430;-49
2021/05/22 09:31:54;;;;;;;15.10;10.55;;;18.50;71.40;;;;;;4944701;28;97093;-50
2021/05/22 09:34:29;;;;;;;17.00;11.88;;;18.50;71.40;;;;;;4921697;28;95834;-51
2021/05/22 09:37:16;;;;;;;14.52;10.65;;;18.50;71.40;;;;;;4923920;28;96393;-52
2021/05/22 09:39:53;;;;;;;17.50;11.20;;;18.40;71.30;;;;;;4925909;28;95729;-50
2021/05/22 09:42:32;;;;;;;15.82;11.50;;;18.40;71.30;;;;;;4924822;28;95552;-49
2021/05/22 09:45:27;;;;;;;18.60;11.88;;;18.40;71.40;;;;;;4927646;28;95772;-53
2021/05/22 09:48:20;;;;;;;15.93;11.38;;;18.30;71.30;;;;;;4953480;28;104885;-53
2021/05/22 09:50:55;;;;;;;18.05;11.85;;;18.30;71.30;;;;;;4948547;28;95984;-54
2021/05/22 09:53:39;;;;;;;18.27;13.70;;;18.30;71.30;;;;;;4941942;28;95903;-55
2021/05/22 09:56:28;;;;;;;18.38;11.73;;;18.20;71.20;;;;;;4946412;28;96032;-53
2021/05/22 09:59:02;;;;;;;18.08;12.55;;;18.20;71.10;;;;;;4942621;28;97064;-54
2021/05/22 10:01:43;;;;;;;17.88;12.93;;;18.20;71.10;;;;;;4945136;28;97445;-54
2021/05/22 10:04:18;;;;;;;17.48;13.18;;;18.20;71.20;;;;;;4941174;28;95807;-56
2021/05/22 10:06:50;;;;;;;17.92;13.05;;;18.20;71.10;;;;;;4947831;28;95545;-51
2021/05/22 10:09:24;;;;;;;18.88;14.02;;;18.10;71.00;;;;;;4943555;28;96331;-51
2021/05/22 10:12:10;;;;;;;19.75;13.55;;;18.10;70.90;;;;;;4946107;28;96479;-49
2021/05/22 10:14:44;;;;;;;18.95;13.65;;;18.10;70.90;;;;;;4938739;28;95952;-54
2021/05/22 10:17:16;;;;;;;17.92;12.85;;;18.10;71.00;;;;;;4941637;28;98155;-52
2021/05/22 10:19:48;;;;;;;18.52;13.40;;;18.00;71.10;;;;;;4942421;28;96581;-52
2021/05/22 10:22:19;;;;;;;17.40;13.02;;;18.00;71.30;;;;;;4943589;28;98032;-51
2021/05/22 10:24:54;;;;;;;19.08;13.43;;;17.90;71.30;;;;;;4943039;28;95982;-54
2021/05/22 10:27:24;;;;;;;18.13;13.32;;;17.90;71.40;;;;;;4944571;28;95706;-53
2021/05/22 10:29:54;;;;;;;24.40;14.87;;;17.80;71.40;;;;;;4940774;28;96049;-54
2021/05/22 10:32:27;;;;;;;19.83;14.93;;;17.80;71.60;;;;;;4923063;28;95771;-56
2021/05/22 10:35:08;;;;;;;17.15;12.55;;;17.70;71.60;;;;;;4920481;28;95526;-54
2021/05/22 10:37:47;;;;;;;20.25;14.00;;;17.70;71.70;;;;;;4924882;28;95339;-53
2021/05/22 10:40:43;;;;;;;20.55;14.40;;;17.70;71.70;;;;;;4921494;28;96687;-55
2021/05/22 10:43:15;;;;;;;18.42;14.05;;;17.60;71.90;;;;;;4922997;28;97323;-52
2021/05/22 10:45:47;;;;;;;16.85;13.52;;;17.60;71.90;;;;;;4919449;28;95993;-53
2021/05/22 10:48:18;;;;;;;;;;;17.60;71.90;;;;;;4946851;28;95830;-53
2021/05/22 10:50:49;;;;;;;17.33;12.30;;;17.50;72.00;;;;;;4945031;28;96482;-52
2021/05/22 10:53:33;;;;;;;20.08;13.80;;;17.50;72.00;;;;;;4947518;28;96490;-54
2021/05/22 10:56:12;;;;;;;21.33;14.02;;;17.50;72.00;;;;;;4941161;28;95796;-50
2021/05/22 10:58:59;;;;;;;19.13;13.52;;;17.40;72.00;;;;;;4947437;28;96305;-57
2021/05/22 11:01:36;;;;;;;19.90;14.15;;;17.40;72.00;;;;;;4938917;28;101520;-56
2021/05/22 11:04:11;;;;;;;19.13;12.88;;;17.30;72.00;;;;;;4942776;28;95923;-57
2021/05/22 11:06:42;;;;;;;17.70;13.25;;;17.30;72.10;;;;;;4940267;28;95669;-53
2021/05/22 11:09:36;;;;;;;20.67;14.10;;;17.30;72.00;;;;;;4946285;28;95816;-53
2021/05/22 11:12:34;;;;;;;22.42;14.23;;;17.30;72.10;;;;;;4937467;28;96959;-55
2021/05/22 11:15:27;;;;;;;18.60;13.85;;;17.20;72.20;;;;;;4942909;28;95932;-57
2021/05/22 11:17:58;;;;;;;17.80;13.18;;;17.20;72.20;;;;;;4920004;28;95472;-54
2021/05/22 11:20:29;;;;;;;21.23;14.93;;;17.10;72.20;;;;;;4923439;28;95854;-54
2021/05/22 11:23:04;;;;;;;20.08;14.98;;;17.10;72.20;;;;;;4923079;28;96021;-54
2021/05/22 11:25:47;;;;;;;17.08;11.88;;;17.20;72.10;;;;;;4926370;28;95620;-56
2021/05/22 11:28:20;;;;;;;19.42;14.05;;;17.20;71.90;;;;;;4923011;28;97621;-54
2021/05/22 11:30:56;;;;;;;18.38;13.30;;;17.20;71.90;;;;;;4921523;28;96010;-56
2021/05/22 11:33:29;;;;;;;18.02;13.60;;;17.20;71.90;;;;;;4922549;28;96404;-47
2021/05/22 11:36:15;;;;;;;20.77;15.15;;;17.20;72.70;;;;;;4924372;28;95673;-47
2021/05/22 11:38:48;;;;;;;21.52;14.35;;;17.10;71.80;;;;;;4921735;28;100083;-47
2021/05/22 11:41:30;;;;;;;20.77;14.65;;;17.10;71.90;;;;;;4925401;28;95334;-47
2021/05/22 11:44:10;;;;;;;18.52;14.70;;;17.00;71.90;;;;;;4921900;28;96072;-47
2021/05/22 11:46:53;;;;;;;19.65;14.65;;;17.00;71.80;;;;;;4920300;28;95991;-47
2021/05/22 11:49:33;;;;;;;20.02;14.80;;;17.00;71.90;;;;;;4927109;28;95525;-46
2021/05/22 11:52:05;;;;;;;21.00;15.00;;;17.00;71.80;;;;;;4925197;28;95402;-49
2021/05/22 11:54:35;;;;;;;19.90;14.55;;;17.00;71.90;;;;;;4924202;28;96742;-48
2021/05/22 11:57:17;;;;;;;22.00;14.80;;;17.00;72.00;;;;;;4926992;28;96081;-48
2021/05/22 11:59:49;;;;;;;20.25;14.77;;;17.00;72.00;;;;;;4925175;28;95869;-49
2021/05/22 12:02:40;;;;;;;18.23;15.00;;;17.00;71.90;;;;;;4923187;28;95857;-46
2021/05/22 12:05:12;;;;;;;20.00;15.13;;;17.00;71.80;;;;;;4923374;28;96580;-47
2021/05/22 12:07:55;;;;;;;19.17;15.48;;;17.00;71.70;;;;;;4924349;28;96196;-46
2021/05/22 12:10:32;;;;;;;17.80;14.48;;;17.00;71.50;;;;;;4925065;28;95712;-46
2021/05/22 12:13:04;;;;;;;19.80;14.45;;;16.90;71.70;;;;;;4923562;28;96259;-46
2021/05/22 12:15:37;;;;;;;21.70;13.90;;;16.90;71.80;;;;;;4924973;28;97239;-47
2021/05/22 12:18:10;;;;;;;20.33;14.27;;;16.80;71.90;;;;;;4942175;28;95771;-45
2021/05/22 12:20:57;;;;;;;19.00;14.65;;;16.70;72.10;;;;;;4958727;28;97584;-45
2021/05/22 12:23:36;;;;;;;20.48;14.65;;;16.70;72.00;;;;;;4940296;28;95767;-45
2021/05/22 12:26:08;;;;;;;20.05;14.93;;;16.70;72.10;;;;;;4943698;28;99023;-47
2021/05/22 12:28:38;;;;;;;22.83;16.27;;;16.60;72.00;;;;;;4939267;28;96045;-46
2021/05/22 12:31:11;;;;;;;18.47;14.63;;;16.60;72.20;;;;;;4940167;28;95722;-44
2021/05/22 12:33:57;;;;;;;18.55;14.27;;;16.50;72.10;;;;;;4940355;28;95917;-44
2021/05/22 12:36:28;;;;;;;18.65;14.13;;;16.50;72.20;;;;;;4943439;28;96175;-47
2021/05/22 12:39:13;;;;;;;17.73;13.68;;;16.50;72.20;;;;;;4942954;28;96152;-45
2021/05/22 12:41:43;;;;;;;20.85;15.23;;;16.40;72.20;;;;;;4945986;28;96352;-46
2021/05/22 12:44:23;;;;;;;18.63;14.80;;;16.40;72.20;;;;;;4943149;28;95896;-46
2021/05/22 12:46:58;;;;;;;17.83;14.55;;;16.40;72.30;;;;;;4941224;28;96736;-45
2021/05/22 12:49:31;;;;;;;19.95;15.20;;;16.40;72.30;;;;;;4944099;28;95997;-45
2021/05/22 12:52:12;;;;;;;20.73;14.98;;;16.30;72.20;;;;;;4949159;28;95488;-46
2021/05/22 12:54:45;;;;;;;19.13;14.07;;;16.30;72.20;;;;;;4944314;28;95702;-47
2021/05/22 12:57:20;;;;;;;19.77;14.95;;;16.30;72.20;;;;;;4946946;28;96679;-47
2021/05/22 12:59:56;;;;;;;22.65;14.80;;;16.30;72.20;;;;;;4942067;28;97395;-46
2021/05/22 13:02:29;;;;;;;23.50;15.57;;;16.20;72.20;;;;;;4944847;28;95585;-46
2021/05/22 13:05:07;;;;;;;22.33;14.85;;;16.20;72.30;;;;;;4945383;28;95417;-46
2021/05/22 13:07:57;;;;;;;21.55;15.68;;;16.10;72.30;;;;;;4948045;28;96738;-47
2021/05/22 13:10:32;;;;;;;23.37;15.73;;;16.10;72.30;;;;;;4943089;28;95853;-47
2021/05/22 13:13:15;;;;;;;23.73;16.95;;;16.10;72.30;;;;;;4946428;28;95593;-46
2021/05/22 13:15:53;;;;;;;19.65;16.10;;;16.10;72.40;;;;;;4934837;28;95926;-45
2021/05/22 13:18:30;;;;;;;29.17;16.15;;;16.00;72.40;;;;;;4927217;28;96640;-46
2021/05/22 13:21:11;;;;;;;25.10;16.38;;;16.00;72.40;;;;;;4925272;28;95829;-47
2021/05/22 13:23:51;;;;;;;23.35;16.55;;;16.00;72.30;;;;;;4928383;28;95927;-45